Time;durP1;ratioP1;P1;durP2;ratioP2;P2;SDS_P1;SDS_P2;PMS_P1;PMS_P2;Temp;Humidity;BMP_temperature;BMP_pressure;BME280_temperature;BME280_humidity;BME280_pressure;Samples;Min_cycle;Max_cycle;Signal;HPM_P1;HPM_P2
2021/06/10 00:01:25;;;;;;;1.10;1.00;;;19.80;51.20;;;;;;4952854;28;20067;-84
2021/06/10 00:03:50;;;;;;;0.70;0.70;;;19.80;51.30;;;;;;4965638;28;20034;-84
2021/06/10 00:06:16;;;;;;;0.82;0.82;;;19.80;51.40;;;;;;4990840;28;20031;-84
2021/06/10 00:08:41;;;;;;;1.05;0.80;;;19.70;51.50;;;;;;4978750;28;20038;-84
2021/06/10 00:11:07;;;;;;;0.70;0.70;;;19.70;51.60;;;;;;4967463;28;20048;-84
2021/06/10 00:13:33;;;;;;;0.75;0.68;;;19.70;51.80;;;;;;4966043;28;20063;-84
2021/06/10 00:15:58;;;;;;;0.75;0.75;;;19.60;51.80;;;;;;4952647;29;20027;-85
2021/06/10 00:18:24;;;;;;;0.80;0.80;;;19.60;51.80;;;;;;4955767;28;20679;-84
2021/06/10 00:20:50;;;;;;;0.68;0.68;;;19.60;51.90;;;;;;4958696;28;20465;-86
2021/06/10 00:23:15;;;;;;;1.77;0.73;;;19.60;52.10;;;;;;4974522;28;20046;-84
2021/06/10 00:25:41;;;;;;;0.80;0.70;;;19.50;52.00;;;;;;4973075;28;20042;-84
2021/06/10 00:28:07;;;;;;;0.60;0.60;;;19.50;52.00;;;;;;4978666;28;20031;-85
2021/06/10 00:30:33;;;;;;;0.80;0.80;;;19.50;52.00;;;;;;4972203;28;20033;-85
2021/06/10 00:33:00;;;;;;;1.17;0.90;;;19.50;52.00;;;;;;4973083;28;20027;-84
2021/06/10 00:35:30;;;;;;;2.17;0.68;;;19.40;51.90;;;;;;4981721;28;20027;-85
2021/06/10 00:37:58;;;;;;;0.70;0.70;;;19.40;51.90;;;;;;4970589;28;20031;-85
2021/06/10 00:40:23;;;;;;;0.80;0.70;;;19.40;52.00;;;;;;4955573;28;20031;-85
2021/06/10 00:42:49;;;;;;;1.40;0.77;;;19.40;52.10;;;;;;4955084;28;20038;-85
2021/06/10 00:45:20;;;;;;;0.98;0.70;;;19.30;52.10;;;;;;4959082;28;20058;-85
2021/06/10 00:47:47;;;;;;;0.70;0.70;;;19.30;52.20;;;;;;4960881;28;20063;-84
2021/06/10 00:50:15;;;;;;;1.15;0.90;;;19.30;52.20;;;;;;4955392;28;20034;-84
2021/06/10 00:52:45;;;;;;;1.33;0.95;;;19.20;52.30;;;;;;4956349;28;20027;-83
2021/06/10 00:55:11;;;;;;;0.73;0.73;;;19.20;52.40;;;;;;4969698;28;20081;-84
2021/06/10 00:57:36;;;;;;;0.95;0.80;;;19.20;52.50;;;;;;4956316;28;20410;-83
2021/06/10 01:00:05;;;;;;;0.80;0.80;;;19.20;52.50;;;;;;4961532;28;20058;-84
2021/06/10 01:02:30;;;;;;;0.98;0.70;;;19.20;52.50;;;;;;4955103;28;20035;-84
2021/06/10 01:04:56;;;;;;;1.10;1.00;;;19.10;52.40;;;;;;4955339;28;20038;-83
2021/06/10 01:07:36;;;;;;;0.95;0.80;;;19.10;52.40;;;;;;4966484;28;20042;-84
2021/06/10 01:10:24;;;;;;;1.33;0.90;;;19.10;52.30;;;;;;4966112;28;20379;-85
2021/06/10 01:13:01;;;;;;;0.98;0.80;;;19.10;52.20;;;;;;4965541;28;20027;-83
2021/06/10 01:15:32;;;;;;;0.75;0.70;;;19.10;52.30;;;;;;4968879;28;20050;-85
2021/06/10 01:17:59;;;;;;;0.70;0.70;;;19.00;52.30;;;;;;4969273;28;20023;-84
2021/06/10 01:20:27;;;;;;;1.05;0.75;;;19.00;52.40;;;;;;4960030;28;20045;-84
2021/06/10 01:23:04;;;;;;;1.33;0.80;;;19.00;52.40;;;;;;4978497;28;20026;-86
2021/06/10 01:26:18;;;;;;;0.93;0.77;;;18.90;52.50;;;;;;4967419;28;20498;-84
2021/06/10 01:28:45;;;;;;;1.35;1.00;;;18.90;52.50;;;;;;4953354;28;20474;-85
2021/06/10 01:31:14;;;;;;;0.80;0.80;;;18.90;52.40;;;;;;4971734;28;20030;-83
2021/06/10 01:33:47;;;;;;;0.80;0.80;;;18.90;52.50;;;;;;4945581;28;20548;-84
2021/06/10 01:36:17;;;;;;;1.50;1.30;;;18.90;52.40;;;;;;4955372;28;20028;-84
2021/06/10 01:38:48;;;;;;;1.48;1.10;;;18.90;52.50;;;;;;4959789;28;20650;-83
2021/06/10 01:41:18;;;;;;;1.02;0.90;;;18.90;52.50;;;;;;4972116;28;20023;-84
2021/06/10 01:43:45;;;;;;;1.48;1.10;;;18.90;52.50;;;;;;4962114;28;20086;-86
2021/06/10 01:46:11;;;;;;;1.25;0.80;;;18.80;52.40;;;;;;4954671;28;20062;-84
2021/06/10 01:48:40;;;;;;;0.80;0.80;;;18.80;52.50;;;;;;4954089;28;20478;-84
2021/06/10 01:51:07;;;;;;;1.35;1.10;;;18.70;52.70;;;;;;4970206;28;20027;-85
2021/06/10 01:53:41;;;;;;;1.50;0.90;;;18.70;52.90;;;;;;4949442;28;20027;-84
2021/06/10 01:56:08;;;;;;;1.55;0.90;;;18.70;53.10;;;;;;4970098;28;20035;-84
2021/06/10 01:58:35;;;;;;;1.55;1.10;;;18.70;53.10;;;;;;4965308;28;20023;-85
2021/06/10 02:01:02;;;;;;;2.00;1.10;;;18.60;53.00;;;;;;4963148;28;20133;-84
2021/06/10 02:03:32;;;;;;;1.40;0.95;;;18.60;53.10;;;;;;4972682;28;20018;-84
2021/06/10 02:05:59;;;;;;;1.80;1.10;;;18.60;53.10;;;;;;4960151;28;20490;-84
2021/06/10 02:08:25;;;;;;;1.38;1.27;;;18.50;53.20;;;;;;4953561;28;20502;-83
2021/06/10 02:10:55;;;;;;;1.45;1.20;;;18.50;53.30;;;;;;4954134;28;20094;-84
2021/06/10 02:13:24;;;;;;;1.63;1.00;;;18.40;53.60;;;;;;4957611;28;20426;-85
2021/06/10 02:15:52;;;;;;;1.13;1.00;;;18.40;53.70;;;;;;4962183;28;20027;-83
2021/06/10 02:18:18;;;;;;;1.20;1.10;;;18.40;53.70;;;;;;4953496;28;20062;-82
2021/06/10 02:20:44;;;;;;;1.33;1.15;;;18.40;53.80;;;;;;4953581;28;20506;-82
2021/06/10 02:23:10;;;;;;;1.08;0.88;;;18.30;53.80;;;;;;4953592;29;20051;-85
2021/06/10 02:25:36;;;;;;;1.60;1.00;;;18.20;54.10;;;;;;4960537;28;20057;-84
2021/06/10 02:28:03;;;;;;;1.35;1.20;;;18.20;54.40;;;;;;4957216;28;20045;-83
2021/06/10 02:30:29;;;;;;;1.55;1.27;;;18.20;54.50;;;;;;4967145;28;20023;-85
2021/06/10 02:32:54;;;;;;;1.30;1.20;;;18.20;54.50;;;;;;4953476;28;20031;-84
2021/06/10 02:35:20;;;;;;;2.65;1.30;;;18.20;54.50;;;;;;4957823;28;20015;-84
2021/06/10 02:37:49;;;;;;;1.20;1.10;;;18.20;54.50;;;;;;4971387;28;20397;-84
2021/06/10 02:40:26;;;;;;;1.90;1.17;;;18.20;54.60;;;;;;4960522;28;20055;-84
2021/06/10 02:42:53;;;;;;;1.45;1.23;;;18.20;54.70;;;;;;4952438;28;20093;-83
2021/06/10 02:45:19;;;;;;;1.23;1.00;;;18.10;54.80;;;;;;4953507;28;20023;-84
2021/06/10 02:47:47;;;;;;;1.15;1.05;;;18.10;55.10;;;;;;4951058;28;20652;-83
2021/06/10 02:50:16;;;;;;;1.20;1.10;;;18.00;55.60;;;;;;4953215;28;20023;-83
2021/06/10 02:52:48;;;;;;;1.77;1.20;;;17.90;55.80;;;;;;4952987;29;20039;-84
2021/06/10 02:55:16;;;;;;;1.70;1.13;;;17.90;56.00;;;;;;4960559;28;20108;-84
2021/06/10 02:57:44;;;;;;;1.65;1.10;;;17.90;56.00;;;;;;4952550;28;20544;-83
2021/06/10 03:00:11;;;;;;;1.58;1.48;;;17.90;56.10;;;;;;4956876;28;20118;-85
2021/06/10 03:02:37;;;;;;;1.25;1.15;;;17.90;56.10;;;;;;4935715;28;20035;-86
2021/06/10 03:05:04;;;;;;;1.35;1.08;;;17.80;56.10;;;;;;4952869;28;20071;-82
2021/06/10 03:07:30;;;;;;;1.10;1.00;;;17.80;56.80;;;;;;4967004;28;20042;-84
2021/06/10 03:09:56;;;;;;;1.20;1.10;;;17.70;56.60;;;;;;4952841;28;20020;-84
2021/06/10 03:12:21;;;;;;;1.63;1.30;;;17.70;56.80;;;;;;4967798;28;20026;-82
2021/06/10 03:14:47;;;;;;;1.48;1.15;;;17.70;57.00;;;;;;4954322;28;20050;-84
2021/06/10 03:17:17;;;;;;;2.40;1.20;;;17.60;57.30;;;;;;4953332;28;20027;-83
2021/06/10 03:19:43;;;;;;;1.30;1.20;;;17.50;57.60;;;;;;4952507;28;20054;-83
2021/06/10 03:22:09;;;;;;;1.50;1.10;;;17.50;57.80;;;;;;4952770;28;20494;-83
2021/06/10 03:24:36;;;;;;;1.67;1.20;;;17.40;58.10;;;;;;4954782;28;20031;-83
2021/06/10 03:27:04;;;;;;;1.60;1.20;;;17.50;58.20;;;;;;4953337;28;20118;-83
2021/06/10 03:29:30;;;;;;;1.75;1.02;;;17.40;58.10;;;;;;4951836;28;20043;-83
2021/06/10 03:31:56;;;;;;;1.25;1.15;;;17.40;58.10;;;;;;4963011;28;20030;-83
2021/06/10 03:34:23;;;;;;;1.98;1.10;;;17.50;58.10;;;;;;4954821;28;20098;-83
2021/06/10 03:36:48;;;;;;;1.20;1.08;;;17.50;58.10;;;;;;4954613;28;20023;-81
2021/06/10 03:39:17;;;;;;;2.70;1.42;;;17.50;58.20;;;;;;4952408;28;20441;-83
2021/06/10 03:41:43;;;;;;;1.65;1.55;;;17.50;58.40;;;;;;4984987;28;20381;-82
2021/06/10 03:44:10;;;;;;;1.67;1.20;;;17.50;58.50;;;;;;4989116;28;20030;-83
2021/06/10 03:46:39;;;;;;;1.33;1.23;;;17.50;58.60;;;;;;4970158;28;20531;-83
2021/06/10 03:49:05;;;;;;;1.48;1.38;;;17.50;58.70;;;;;;4985073;28;20553;-83
2021/06/10 03:51:30;;;;;;;1.60;1.40;;;17.40;58.90;;;;;;4988396;28;20019;-84
2021/06/10 03:53:56;;;;;;;2.72;1.42;;;17.40;59.00;;;;;;4989255;28;20058;-82
2021/06/10 03:56:22;;;;;;;1.65;1.40;;;17.40;59.10;;;;;;4966380;28;20037;-83
2021/06/10 03:58:47;;;;;;;3.65;1.95;;;17.40;59.20;;;;;;4956263;28;20548;-83
2021/06/10 04:01:13;;;;;;;2.33;1.80;;;17.40;59.20;;;;;;4983686;28;20100;-84
2021/06/10 04:03:39;;;;;;;3.05;2.28;;;17.50;59.30;;;;;;4991821;28;20033;-84
2021/06/10 04:06:05;;;;;;;2.67;2.20;;;17.50;59.30;;;;;;4960919;28;20114;-84
2021/06/10 04:08:31;;;;;;;3.72;2.13;;;17.60;59.30;;;;;;4973995;28;20106;-83
2021/06/10 04:10:56;;;;;;;2.65;1.98;;;17.60;59.30;;;;;;4977329;28;20257;-83
2021/06/10 04:13:22;;;;;;;2.25;2.00;;;17.70;59.30;;;;;;4974619;28;20488;-83
2021/06/10 04:15:49;;;;;;;3.25;2.00;;;17.70;59.30;;;;;;4974546;28;20077;-82
2021/06/10 04:18:18;;;;;;;3.65;2.80;;;17.70;59.30;;;;;;4990169;28;20030;-84
2021/06/10 04:20:46;;;;;;;3.47;2.92;;;17.70;59.30;;;;;;4976953;28;20117;-82
2021/06/10 04:23:11;;;;;;;5.07;3.10;;;17.80;59.40;;;;;;4979140;28;20038;-83
2021/06/10 04:25:37;;;;;;;3.42;2.70;;;17.90;59.30;;;;;;4971420;28;20496;-83
2021/06/10 04:28:03;;;;;;;4.90;2.97;;;18.00;59.20;;;;;;4989684;28;20537;-83
2021/06/10 04:30:28;;;;;;;4.38;3.38;;;18.00;59.00;;;;;;4994130;28;20029;-82
2021/06/10 04:32:54;;;;;;;3.92;3.00;;;18.10;58.90;;;;;;4982714;28;20035;-82
2021/06/10 04:35:19;;;;;;;3.03;2.72;;;18.20;58.80;;;;;;4974111;28;20122;-83
2021/06/10 04:37:45;;;;;;;4.93;3.60;;;18.20;58.70;;;;;;4973699;28;20037;-83
2021/06/10 04:40:11;;;;;;;4.47;3.92;;;18.30;58.70;;;;;;4974781;28;20093;-83
2021/06/10 04:42:37;;;;;;;5.32;4.53;;;18.30;58.70;;;;;;4974137;28;20034;-83
2021/06/10 04:45:04;;;;;;;4.38;3.85;;;18.30;58.80;;;;;;4974456;28;20097;-82
2021/06/10 04:47:29;;;;;;;4.00;3.60;;;18.30;58.80;;;;;;4973670;28;20031;-84
2021/06/10 04:49:55;;;;;;;4.85;4.20;;;18.30;58.70;;;;;;4974608;28;20081;-82
2021/06/10 04:52:20;;;;;;;3.90;3.30;;;18.50;58.60;;;;;;4975691;28;20033;-83
2021/06/10 04:54:46;;;;;;;3.95;3.10;;;19.10;57.60;;;;;;4974320;28;20089;-83
2021/06/10 04:57:12;;;;;;;4.30;3.90;;;19.80;56.20;;;;;;4974154;28;20081;-81
2021/06/10 04:59:37;;;;;;;6.20;4.30;;;20.40;55.00;;;;;;4980769;28;20558;-82
2021/06/10 05:02:04;;;;;;;6.63;4.88;;;20.80;54.10;;;;;;4974231;28;20031;-81
2021/06/10 05:04:30;;;;;;;7.28;5.65;;;21.00;53.50;;;;;;4987534;28;20021;-81
2021/06/10 05:06:56;;;;;;;9.25;6.93;;;21.10;53.30;;;;;;4984014;28;20027;-81
2021/06/10 05:09:22;;;;;;;6.40;4.88;;;21.20;53.40;;;;;;4989056;28;20111;-81
2021/06/10 05:11:48;;;;;;;7.07;4.90;;;21.30;53.00;;;;;;4973170;28;20030;-81
2021/06/10 05:14:14;;;;;;;6.18;5.00;;;21.70;52.50;;;;;;4971160;28;20031;-82
2021/06/10 05:16:39;;;;;;;5.65;4.78;;;21.90;51.90;;;;;;4973122;28;20019;-82
2021/06/10 05:19:05;;;;;;;5.93;4.57;;;22.20;51.50;;;;;;4972421;28;20437;-82
2021/06/10 05:21:30;;;;;;;5.25;4.35;;;22.50;51.20;;;;;;4972733;28;20105;-82
2021/06/10 05:23:57;;;;;;;6.47;4.22;;;22.60;50.90;;;;;;4972262;28;20068;-82
2021/06/10 05:26:23;;;;;;;7.10;5.38;;;22.80;50.50;;;;;;4972232;28;20022;-81
2021/06/10 05:28:51;;;;;;;5.90;4.75;;;22.90;50.50;;;;;;4971712;28;20038;-82
2021/06/10 05:31:16;;;;;;;5.90;4.75;;;22.90;50.50;;;;;;4950630;28;20022;-81
2021/06/10 05:33:42;;;;;;;6.03;4.70;;;23.10;50.40;;;;;;4972358;28;20035;-81
2021/06/10 05:36:08;;;;;;;5.40;4.00;;;23.00;50.60;;;;;;4955100;28;20019;-82
2021/06/10 05:38:34;;;;;;;5.70;4.40;;;23.20;50.60;;;;;;4977067;28;20057;-80
2021/06/10 05:41:00;;;;;;;4.93;4.20;;;23.20;50.60;;;;;;4971844;28;20023;-81
2021/06/10 05:43:26;;;;;;;5.20;4.22;;;23.10;50.80;;;;;;4972258;28;20098;-82
2021/06/10 05:45:52;;;;;;;5.93;4.25;;;23.30;50.80;;;;;;4947482;28;20482;-81
2021/06/10 05:48:18;;;;;;;6.93;5.10;;;23.20;50.90;;;;;;4951236;28;21933;-82
2021/06/10 05:50:47;;;;;;;4.57;3.85;;;23.20;51.00;;;;;;4985671;28;20030;-83
2021/06/10 05:53:15;;;;;;;4.22;3.58;;;23.20;51.20;;;;;;4966084;28;20039;-83
2021/06/10 05:55:43;;;;;;;4.32;3.33;;;23.10;51.40;;;;;;4952693;28;20031;-82
2021/06/10 05:58:08;;;;;;;4.80;4.03;;;23.30;51.40;;;;;;4955068;28;20049;-91
2021/06/10 06:00:34;;;;;;;4.32;3.88;;;23.30;51.30;;;;;;4981134;28;20027;-87
2021/06/10 06:03:03;;;;;;;4.28;3.50;;;23.40;51.20;;;;;;4971804;28;20041;-90
2021/06/10 06:05:32;;;;;;;4.05;3.40;;;23.50;51.20;;;;;;4980470;28;20047;-91
2021/06/10 06:07:58;;;;;;;4.95;3.92;;;23.50;51.10;;;;;;4964576;28;20046;-92
2021/06/10 06:10:24;;;;;;;4.60;3.88;;;23.40;51.20;;;;;;4985708;28;20038;-94
2021/06/10 06:12:52;;;;;;;4.50;3.45;;;23.40;51.40;;;;;;4982844;28;20058;-93
2021/06/10 06:15:18;;;;;;;4.93;4.32;;;23.50;51.40;;;;;;4971205;28;20113;-95
2021/06/10 06:17:46;;;;;;;4.22;3.70;;;23.40;51.30;;;;;;4964423;28;20035;-91
2021/06/10 06:20:13;;;;;;;8.52;5.82;;;23.50;51.50;;;;;;4979840;28;20442;-93
2021/06/10 06:22:41;;;;;;;6.90;5.50;;;23.40;51.30;;;;;;4975048;28;20046;-93
2021/06/10 06:25:09;;;;;;;5.05;4.50;;;23.30;51.60;;;;;;4966972;28;20015;-94
2021/06/10 06:27:35;;;;;;;4.45;4.03;;;23.40;51.70;;;;;;4959479;28;20046;-94
2021/06/10 06:30:01;;;;;;;4.63;3.45;;;23.50;51.50;;;;;;4957672;28;20065;-93
2021/06/10 06:32:28;;;;;;;6.03;4.63;;;23.60;51.40;;;;;;4965876;28;20109;-95
2021/06/10 06:34:54;;;;;;;4.93;4.10;;;23.70;51.30;;;;;;4960063;28;20496;-93
2021/06/10 06:37:19;;;;;;;5.45;4.65;;;23.80;51.20;;;;;;4954367;28;20027;-95
2021/06/10 06:39:45;;;;;;;5.13;4.05;;;23.90;51.00;;;;;;4964450;28;20396;-94
2021/06/10 06:42:10;;;;;;;4.97;3.90;;;24.10;51.00;;;;;;4970172;28;20023;-89
2021/06/10 06:44:36;;;;;;;5.32;3.58;;;24.10;50.60;;;;;;4952025;28;20038;-92
2021/06/10 06:47:02;;;;;;;4.90;3.40;;;24.30;50.50;;;;;;4989078;28;20027;-93
2021/06/10 06:49:27;;;;;;;4.20;3.58;;;24.40;50.40;;;;;;4965849;28;20244;-90
2021/06/10 06:51:53;;;;;;;4.22;3.55;;;24.50;50.20;;;;;;4981397;28;20034;-88
2021/06/10 06:54:20;;;;;;;4.53;3.50;;;24.60;50.60;;;;;;4984009;28;20049;-90
2021/06/10 06:56:45;;;;;;;4.38;3.40;;;24.80;49.70;;;;;;4955695;28;20513;-88
2021/06/10 06:59:11;;;;;;;4.57;3.83;;;25.00;49.50;;;;;;4959711;28;20026;-87
2021/06/10 07:01:36;;;;;;;4.22;3.28;;;25.10;49.30;;;;;;4959540;28;20406;-88
2021/06/10 07:04:02;;;;;;;7.05;4.18;;;25.00;49.20;;;;;;4955058;28;20039;-89
2021/06/10 07:06:27;;;;;;;5.00;4.22;;;25.00;49.10;;;;;;4951949;28;20074;-88
2021/06/10 07:08:53;;;;;;;5.43;3.60;;;24.90;49.00;;;;;;4960982;28;20088;-86
2021/06/10 07:11:18;;;;;;;5.22;4.10;;;24.90;49.00;;;;;;4942426;28;20031;-89
2021/06/10 07:13:44;;;;;;;4.22;3.83;;;24.90;48.80;;;;;;4968415;28;20043;-89
2021/06/10 07:16:09;;;;;;;6.03;4.93;;;25.00;48.80;;;;;;4959055;28;20030;-88
2021/06/10 07:18:35;;;;;;;5.32;4.75;;;25.00;48.60;;;;;;4951044;28;20035;-88
2021/06/10 07:21:01;;;;;;;6.18;4.38;;;24.90;48.50;;;;;;4954321;28;20485;-89
2021/06/10 07:23:28;;;;;;;4.75;4.20;;;24.90;49.40;;;;;;4935366;29;20027;-85
2021/06/10 07:25:55;;;;;;;5.05;3.20;;;25.00;48.70;;;;;;4953865;28;20089;-88
2021/06/10 07:28:20;;;;;;;6.10;4.03;;;25.00;48.70;;;;;;4951755;28;20019;-86
2021/06/10 07:30:47;;;;;;;5.25;4.22;;;25.00;48.40;;;;;;4953006;28;20274;-87
2021/06/10 07:33:12;;;;;;;5.97;3.65;;;25.10;48.30;;;;;;4940539;28;20026;-87
2021/06/10 07:35:39;;;;;;;4.82;3.70;;;25.30;48.00;;;;;;4959629;28;20517;-87
2021/06/10 07:38:05;;;;;;;4.53;3.38;;;25.50;47.70;;;;;;4968697;28;20041;-87
2021/06/10 07:40:31;;;;;;;3.20;2.58;;;25.60;47.50;;;;;;4953016;28;20537;-87
2021/06/10 07:42:58;;;;;;;3.30;3.00;;;25.80;47.30;;;;;;4966358;28;20030;-89
2021/06/10 07:45:26;;;;;;;4.85;2.90;;;25.90;46.70;;;;;;4970186;28;20034;-86
2021/06/10 07:47:51;;;;;;;3.67;2.67;;;26.00;46.40;;;;;;4954942;28;20600;-89
2021/06/10 07:50:17;;;;;;;2.10;1.80;;;26.10;45.70;;;;;;4941929;28;20019;-88
2021/06/10 07:52:42;;;;;;;3.08;2.30;;;26.10;45.30;;;;;;4962318;28;20060;-87
2021/06/10 07:55:09;;;;;;;2.20;2.00;;;26.10;44.50;;;;;;4969042;28;20398;-86
2021/06/10 07:57:35;;;;;;;2.38;2.17;;;26.10;44.30;;;;;;4970998;28;20042;-85
2021/06/10 08:00:06;;;;;;;2.70;1.70;;;26.10;43.00;;;;;;4964340;28;20493;-87
2021/06/10 08:02:32;;;;;;;2.20;1.60;;;26.10;42.90;;;;;;4967725;28;20038;-86
2021/06/10 08:04:58;;;;;;;2.78;2.00;;;26.10;42.60;;;;;;4970093;28;20026;-88
2021/06/10 08:07:23;;;;;;;3.97;2.40;;;26.10;42.40;;;;;;4960867;28;20513;-88
2021/06/10 08:09:49;;;;;;;1.77;1.67;;;26.00;41.30;;;;;;4937919;28;20031;-86
2021/06/10 08:12:15;;;;;;;2.22;1.92;;;26.10;41.80;;;;;;4953888;28;20678;-86
2021/06/10 08:14:40;;;;;;;2.65;2.40;;;26.20;41.50;;;;;;4952215;28;20433;-87
2021/06/10 08:17:06;;;;;;;2.67;1.90;;;26.10;40.90;;;;;;4960234;28;20532;-87
2021/06/10 08:19:32;;;;;;;2.80;2.40;;;26.10;41.20;;;;;;4965762;28;20457;-86
2021/06/10 08:21:57;;;;;;;2.58;2.10;;;26.30;41.10;;;;;;4971024;28;20027;-87
2021/06/10 08:24:24;;;;;;;3.20;2.15;;;26.40;41.30;;;;;;4949074;28;20011;-85
2021/06/10 08:26:51;;;;;;;3.33;2.80;;;26.60;41.20;;;;;;4955384;28;20406;-86
2021/06/10 08:29:17;;;;;;;3.70;3.20;;;26.60;40.50;;;;;;4969813;28;20039;-88
2021/06/10 08:31:42;;;;;;;3.72;2.47;;;26.40;39.80;;;;;;4951465;28;20059;-86
2021/06/10 08:34:08;;;;;;;3.65;2.45;;;26.30;40.40;;;;;;4963168;28;20118;-87
2021/06/10 08:36:33;;;;;;;2.80;2.40;;;26.40;40.70;;;;;;4971175;28;20481;-86
2021/06/10 08:38:59;;;;;;;2.97;2.67;;;26.60;41.10;;;;;;4968527;28;20031;-88
2021/06/10 08:41:26;;;;;;;3.35;2.90;;;26.70;40.90;;;;;;4970638;28;20069;-87
2021/06/10 08:43:53;;;;;;;4.55;3.00;;;26.80;41.30;;;;;;4982893;28;20054;-89
2021/06/10 08:46:22;;;;;;;5.25;4.05;;;26.80;41.20;;;;;;4976325;28;20023;-89
2021/06/10 08:48:50;;;;;;;3.47;2.70;;;26.80;41.20;;;;;;4951088;28;20121;-88
2021/06/10 08:51:16;;;;;;;3.15;2.35;;;26.70;41.70;;;;;;4955201;28;20110;-95
2021/06/10 08:53:42;;;;;;;3.65;2.45;;;26.90;41.90;;;;;;4976887;28;20117;-96
2021/06/10 08:56:08;;;;;;;4.10;2.63;;;26.90;41.90;;;;;;4953817;28;20034;-92
2021/06/10 08:58:34;;;;;;;3.83;2.60;;;27.00;41.80;;;;;;4972582;28;20085;-87
2021/06/10 09:01:02;;;;;;;3.63;2.90;;;27.00;41.70;;;;;;4950053;28;20038;-91
2021/06/10 09:03:32;;;;;;;4.28;3.20;;;27.00;41.60;;;;;;4981769;28;20023;-89
2021/06/10 09:06:07;;;;;;;3.80;3.10;;;27.00;41.50;;;;;;4975117;28;20035;-89
2021/06/10 09:08:41;;;;;;;3.20;2.40;;;27.00;41.10;;;;;;4969398;28;20038;-91
2021/06/10 09:11:15;;;;;;;3.60;2.10;;;27.10;41.30;;;;;;4974412;28;20049;-89
2021/06/10 09:13:51;;;;;;;3.35;2.38;;;27.20;41.20;;;;;;4970949;28;20038;-90
2021/06/10 09:16:32;;;;;;;5.45;3.80;;;27.20;40.80;;;;;;4970419;28;20029;-88
2021/06/10 09:19:06;;;;;;;4.32;3.40;;;27.20;40.40;;;;;;4961355;28;20023;-92
2021/06/10 09:21:33;;;;;;;3.55;2.60;;;26.90;40.10;;;;;;4971121;28;20022;-93
2021/06/10 09:24:35;;;;;;;4.10;2.30;;;26.90;40.40;;;;;;4979453;28;20031;-91
2021/06/10 09:27:07;;;;;;;4.53;2.85;;;27.00;40.60;;;;;;4942353;28;20517;-91
2021/06/10 09:29:52;;;;;;;2.00;1.85;;;27.00;40.30;;;;;;4975118;28;20054;-92
2021/06/10 09:32:26;;;;;;;3.00;2.22;;;27.20;40.20;;;;;;4965100;28;20493;-92
2021/06/10 09:34:57;;;;;;;5.82;3.45;;;27.20;40.20;;;;;;4988108;28;20081;-92
2021/06/10 09:37:28;;;;;;;4.57;3.00;;;27.20;40.40;;;;;;4965123;28;20062;-93
2021/06/10 09:39:55;;;;;;;2.60;1.98;;;27.00;39.70;;;;;;4979777;28;20030;-90
2021/06/10 09:42:29;;;;;;;3.50;3.15;;;27.00;40.10;;;;;;4969580;28;20075;-90
2021/06/10 09:44:59;;;;;;;4.60;2.53;;;27.00;39.70;;;;;;4963832;28;20042;-89
2021/06/10 09:47:40;;;;;;;2.83;2.58;;;27.10;40.00;;;;;;4974487;28;20033;-89
2021/06/10 09:50:27;;;;;;;2.22;2.03;;;27.10;40.60;;;;;;4972517;28;20158;-90
2021/06/10 09:53:15;;;;;;;2.08;1.70;;;27.30;40.50;;;;;;4964783;28;20065;-90
2021/06/10 09:55:43;;;;;;;2.97;2.20;;;27.50;40.70;;;;;;4987988;28;20027;-89
2021/06/10 09:58:14;;;;;;;5.22;2.30;;;27.70;40.30;;;;;;4968131;28;20030;-89
2021/06/10 10:01:01;;;;;;;5.68;4.30;;;27.70;40.10;;;;;;4958572;28;20701;-89
2021/06/10 10:03:32;;;;;;;3.20;2.58;;;27.50;39.30;;;;;;4954320;28;20023;-89
2021/06/10 10:06:03;;;;;;;4.80;2.73;;;27.40;40.00;;;;;;4963229;28;20018;-91
2021/06/10 10:08:31;;;;;;;2.30;2.10;;;27.50;40.00;;;;;;4952691;28;20677;-90
2021/06/10 10:10:57;;;;;;;3.40;2.40;;;27.60;40.30;;;;;;4979689;28;20038;-89
2021/06/10 10:13:26;;;;;;;3.17;2.30;;;27.60;40.40;;;;;;4985600;28;20041;-88
2021/06/10 10:15:51;;;;;;;2.72;2.00;;;27.70;40.50;;;;;;4975493;28;20027;-90
2021/06/10 10:18:18;;;;;;;1.52;1.42;;;27.80;39.90;;;;;;4971752;28;20106;-90
2021/06/10 10:20:45;;;;;;;1.50;1.40;;;27.80;39.70;;;;;;4972049;28;20026;-89
2021/06/10 10:23:22;;;;;;;2.72;2.00;;;27.90;39.80;;;;;;4975850;28;20465;-90
2021/06/10 10:25:52;;;;;;;1.70;1.60;;;28.00;39.70;;;;;;4980793;28;20034;-90
2021/06/10 10:28:18;;;;;;;2.75;1.73;;;28.10;39.40;;;;;;4956747;28;20114;-90
2021/06/10 10:30:45;;;;;;;2.10;1.90;;;28.20;39.60;;;;;;4959916;28;20773;-90
2021/06/10 10:33:19;;;;;;;2.00;1.40;;;28.20;39.40;;;;;;4977537;28;20023;-91
2021/06/10 10:35:52;;;;;;;2.85;1.33;;;28.30;39.40;;;;;;4975977;28;20094;-90
2021/06/10 10:38:28;;;;;;;1.88;1.70;;;28.50;39.00;;;;;;4970378;28;20022;-90
2021/06/10 10:41:00;;;;;;;3.13;2.58;;;28.50;38.60;;;;;;4980564;28;20056;-90
2021/06/10 10:43:27;;;;;;;3.00;1.70;;;28.40;38.10;;;;;;4972029;28;20130;-89
2021/06/10 10:46:20;;;;;;;1.67;1.40;;;28.30;38.30;;;;;;4966287;28;20033;-89
2021/06/10 10:48:51;;;;;;;1.70;1.40;;;28.40;38.30;;;;;;4967011;28;20034;-90
2021/06/10 10:51:25;;;;;;;1.98;1.50;;;28.50;38.00;;;;;;4955656;28;20102;-90
2021/06/10 10:53:58;;;;;;;1.55;1.40;;;28.50;37.80;;;;;;4954805;28;20057;-90
2021/06/10 10:56:43;;;;;;;1.50;1.30;;;28.60;37.30;;;;;;4958112;28;20034;-91
2021/06/10 10:59:09;;;;;;;1.55;1.02;;;28.60;37.10;;;;;;4968826;28;20120;-91
2021/06/10 11:01:35;;;;;;;3.58;1.60;;;28.70;37.10;;;;;;4973214;28;20031;-89
2021/06/10 11:04:04;;;;;;;1.00;0.90;;;28.70;36.30;;;;;;4964539;28;20038;-88
2021/06/10 11:06:30;;;;;;;1.20;1.10;;;28.70;36.30;;;;;;4965615;28;20023;-89
2021/06/10 11:09:06;;;;;;;1.85;0.90;;;28.80;36.10;;;;;;4951390;28;20117;-95
2021/06/10 11:11:57;;;;;;;2.58;1.35;;;28.80;35.40;;;;;;4968679;28;20027;-93
2021/06/10 11:14:50;;;;;;;1.45;1.25;;;28.80;34.80;;;;;;4974384;28;20077;-91
2021/06/10 11:17:23;;;;;;;1.83;1.30;;;28.80;34.90;;;;;;4954691;28;20050;-90
2021/06/10 11:20:14;;;;;;;1.83;1.10;;;28.70;34.70;;;;;;4959223;28;20030;-96
2021/06/10 11:22:39;;;;;;;1.35;1.25;;;29.00;35.00;;;;;;4972166;28;20027;-89
2021/06/10 11:25:25;;;;;;;2.05;1.50;;;29.20;34.50;;;;;;4986845;28;20041;-90
2021/06/10 11:27:51;;;;;;;0.85;0.85;;;29.20;34.20;;;;;;4968903;28;20537;-89
2021/06/10 11:30:30;;;;;;;1.45;1.35;;;29.20;34.30;;;;;;4957076;28;20385;-96
2021/06/10 11:33:06;;;;;;;1.98;1.60;;;29.20;34.50;;;;;;4977636;28;20106;-96
2021/06/10 11:36:04;;;;;;;1.88;1.40;;;29.30;34.10;;;;;;4977462;28;20390;-92
2021/06/10 11:38:40;;;;;;;2.58;1.50;;;29.50;34.30;;;;;;4975193;28;20030;-96
2021/06/10 11:41:12;;;;;;;1.80;1.65;;;29.70;33.50;;;;;;4977938;28;20022;-95
2021/06/10 11:43:40;;;;;;;4.43;2.40;;;29.80;33.60;;;;;;4989717;28;20474;-96
2021/06/10 11:46:13;;;;;;;1.90;1.70;;;29.40;32.50;;;;;;4966646;28;20050;-96
2021/06/10 11:48:47;;;;;;;3.63;2.90;;;29.20;33.60;;;;;;4975334;28;20038;-96
2021/06/10 11:51:39;;;;;;;2.25;2.05;;;29.10;34.00;;;;;;4964235;28;20086;-96
2021/06/10 11:54:11;;;;;;;2.38;1.70;;;29.30;34.70;;;;;;4962622;28;20058;-92
2021/06/10 11:56:37;;;;;;;;;;;29.40;34.50;;;;;;4974155;28;20031;-94
2021/06/10 11:59:24;;;;;;;2.22;1.77;;;29.70;34.40;;;;;;4971292;28;19972;-92
2021/06/10 12:02:00;;;;;;;2.33;1.70;;;29.70;33.70;;;;;;4968793;28;20043;-90
2021/06/10 12:04:40;;;;;;;3.58;2.33;;;29.70;34.10;;;;;;4975002;28;20031;-92
2021/06/10 12:07:10;;;;;;;2.42;1.80;;;29.50;34.10;;;;;;4959366;28;20057;-89
2021/06/10 12:09:54;;;;;;;1.63;1.30;;;29.50;33.80;;;;;;4966384;28;20022;-89
2021/06/10 12:12:42;;;;;;;3.08;2.03;;;29.80;33.90;;;;;;4952496;28;20026;-89
2021/06/10 12:15:15;;;;;;;1.77;1.67;;;30.00;33.80;;;;;;5190601;23;20013;-89
2021/06/10 12:18:02;;;;;;;2.42;2.10;;;30.20;33.80;;;;;;5050691;28;20037;-93
2021/06/10 12:20:34;;;;;;;2.55;2.03;;;30.30;33.60;;;;;;5031845;28;20036;-94
2021/06/10 12:23:01;;;;;;;2.28;1.52;;;30.40;33.50;;;;;;5050109;28;20036;-93
2021/06/10 12:26:19;;;;;;;1.48;1.38;;;30.60;33.30;;;;;;5042142;28;20083;-91
2021/06/10 12:28:46;;;;;;;2.22;1.85;;;30.90;33.40;;;;;;5015412;28;20029;-96
2021/06/10 12:31:25;;;;;;;4.63;2.72;;;31.00;33.10;;;;;;5034054;28;20075;-94
2021/06/10 12:33:52;;;;;;;3.80;2.45;;;31.20;32.60;;;;;;5033967;28;20037;-94
2021/06/10 12:36:25;;;;;;;2.80;1.42;;;31.00;32.20;;;;;;5033814;28;20021;-88
2021/06/10 12:39:15;;;;;;;2.28;1.48;;;31.10;32.40;;;;;;5032931;28;20460;-94
2021/06/10 12:41:51;;;;;;;2.95;1.50;;;31.30;32.30;;;;;;5031063;28;20033;-91
2021/06/10 12:44:17;;;;;;;1.40;1.30;;;31.50;32.30;;;;;;5015229;28;20384;-91
2021/06/10 12:46:50;;;;;;;1.77;1.42;;;31.80;32.00;;;;;;5032988;28;20132;-88
2021/06/10 12:49:38;;;;;;;3.70;2.00;;;31.90;31.30;;;;;;5032997;28;20042;-89
2021/06/10 12:52:27;;;;;;;1.92;1.73;;;31.70;30.70;;;;;;5015699;28;20022;-93
2021/06/10 12:55:05;;;;;;;2.58;2.08;;;31.40;30.60;;;;;;5021873;28;20049;-94
2021/06/10 12:57:33;;;;;;;2.03;1.27;;;31.40;30.40;;;;;;5021641;28;20120;-88
2021/06/10 12:59:59;;;;;;;4.03;2.00;;;31.60;30.60;;;;;;5028836;28;21183;-86